Harahan, Louisiana
Current Conditions -  °F | °C
As of 1:53 PM on Wednesday 26 Nov 2014 (Local Time) from KMSY Reporting Station
Few Clouds Few Clouds  
Wind Chill: 69°   Ceiling: Unl
Heat Index: 69°   Visibility: 10mi
Dew Point: 34°   Wind: 16mph
Humidity: 27%   Direction: 230°SW
Pressure: 30.19"   Gusts: 25mph
Location:  29.9536°N, 90.2034°W
Report Text: KMSY 261953Z 23014G22KT 10SM FEW010 21/01 A3019 RMK AO2 SLP225 FU FEW010 T02060011
Loading
Personal Weather Stations






























Interactive Weather Map New forecast layout! Learn more

10-Day Weather Forecast

Advertisements
Track Severe Weather on mobile